MET'MAP v2.0
soon released !

Expected late october,
this new version will be
more efficient, smarter,
and hosted on a brand new
server x3 powerfull...
...and still free !


Not compatible ?
Try the mobile version !

LOG IN : | Subscribe | Disclaimer | Who is Orbifly ? |
ICAO code :
Legend : VFR Marginal VFR IFR Intensive IFR Very Intensive IFR
Visi :
Ceiling :
>= 8 km
>= 3000ft
5 to 8 km
1000 to 3000 ft
1500m to 5 km
500 to 1000 ft
800 to 1500m
200 to 500 ft
< 800m
< 200 ft

METAR - ETSH Holzdorf AB - 27 May 2020 11:23 UTC - Data Source NOAA   


- Airport Elevation : 265 ft
- No reported NOTAMs.


ETSH - Holzdorf AB

Latest METAR recorded : 2015/08/11 07:20 ETSH 110720Z VRB02KT 9999 FEW100 26/17 Q1014 BLU+BLU+
TAF TAF ETSH
Valid from the 27 at 08:00 until the 27 at 17:00 UTC


270721Z 2708/2717 VRB03KT 9999 NSW FEW040 SCT230

Source NOAA


MET'MAP, your aeronautical weather chart ! - Copyright ORBIFLY December 2007

Programming & Development : Alexandra Zaïnal
Co-Developer : Marc-Olivier Méhu
Technical & hardware support : Manuel Goepfert
Concept & Financing : Baudouin d'Aumeries